createdAt,value
2019-01-26T00:18:20.916Z,63.50
2019-01-26T00:48:46.791Z,66.10
2019-01-26T00:51:19.360Z,64.50
2019-01-26T00:53:51.926Z,66.70
2019-01-26T00:56:24.838Z,65.20
2019-01-26T01:31:53.181Z,62.70
2019-01-26T01:34:25.702Z,63.00
2019-01-26T01:39:30.112Z,68.80
2019-01-26T02:25:00.883Z,69.60
2019-01-26T02:27:33.395Z,70.40
2019-01-26T02:30:05.939Z,70.40
2019-01-26T02:32:38.436Z,70.80
2019-01-26T02:35:10.960Z,70.90
2019-01-26T03:38:36.585Z,66.80
2019-01-26T04:36:47.385Z,63.90
2019-01-26T04:41:51.442Z,65.40
2019-01-26T04:44:24.086Z,65.70
2019-01-26T04:46:56.594Z,68.90
2019-01-26T05:04:42.133Z,66.10
2019-01-26T05:09:50.027Z,63.50
2019-01-26T05:12:22.561Z,65.10
2019-01-26T05:14:55.107Z,65.50
2019-01-26T05:22:33.590Z,64.70
2019-01-26T05:47:57.482Z,62.80
2019-01-26T05:53:05.289Z,65.00
2019-01-26T06:10:48.117Z,63.00
2019-01-26T06:26:06.301Z,67.00
2019-01-26T06:28:38.805Z,66.60
2019-01-26T06:56:29.944Z,68.70
2019-01-26T07:21:48.308Z,71.70
2019-01-26T07:24:20.831Z,72.10
2019-01-26T07:29:24.972Z,76.70
2019-01-26T07:57:17.571Z,77.40
2019-01-26T08:48:03.586Z,73.70
2019-01-26T09:33:51.920Z,76.20
2019-01-26T09:36:24.725Z,76.00
2019-01-26T14:08:25.467Z,75.90
2019-01-26T14:10:58.080Z,77.30
2019-01-26T14:41:18.022Z,78.30
2019-01-26T14:48:53.582Z,79.40
2019-01-26T14:51:26.261Z,79.20
2019-01-26T15:04:05.235Z,75.70
2019-01-26T15:09:10.358Z,75.00
2019-01-26T15:29:24.357Z,79.60
2019-01-26T15:34:28.490Z,79.80
2019-01-26T15:44:36.562Z,77.80
2019-01-26T16:07:23.053Z,77.90
2019-01-26T16:12:27.199Z,79.40
2019-01-26T17:00:46.305Z,80.60
2019-01-26T17:31:12.039Z,77.20
2019-01-26T18:06:52.927Z,79.60
2019-01-26T18:09:25.435Z,81.80
2019-01-26T18:14:29.459Z,81.70
2019-01-26T18:17:01.956Z,81.30
2019-01-26T18:19:34.568Z,81.90
2019-01-26T18:22:07.060Z,82.00
2019-01-26T18:24:39.676Z,81.60
2019-01-26T18:27:12.146Z,82.10
2019-01-26T18:29:45.920Z,82.00
2019-01-26T18:32:18.421Z,81.80
2019-01-26T18:34:52.151Z,82.80
2019-01-26T18:37:25.182Z,82.50
2019-01-26T18:39:57.738Z,82.80
2019-01-26T18:42:30.239Z,82.20
2019-01-26T18:45:02.771Z,82.50
2019-01-26T18:47:35.268Z,83.30
2019-01-26T18:50:13.127Z,83.70
2019-01-26T18:52:45.669Z,83.70
2019-01-26T18:55:18.178Z,83.70
2019-01-26T18:57:50.659Z,83.70
2019-01-26T19:00:24.781Z,84.00
2019-01-26T19:02:59.374Z,83.10
2019-01-26T19:05:33.270Z,83.30
2019-01-26T19:08:05.778Z,83.10
2019-01-26T19:13:09.843Z,82.00
2019-01-26T19:15:42.342Z,81.70
2019-01-26T19:18:14.836Z,81.80
2019-01-26T19:20:47.359Z,81.80
2019-01-26T19:23:19.839Z,81.50
2019-01-26T19:25:52.365Z,81.90
2019-01-26T19:28:24.859Z,81.10
2019-01-26T19:30:57.377Z,81.20
2019-01-26T19:33:29.874Z,81.60
2019-01-26T19:36:02.408Z,80.90
2019-01-26T19:38:34.908Z,81.00
2019-01-26T19:41:07.412Z,75.40
2019-01-26T19:43:39.864Z,81.00
2019-01-26T19:46:12.432Z,80.60
2019-01-26T19:48:44.924Z,80.40
2019-01-26T19:51:17.452Z,80.40
2019-01-26T19:53:49.948Z,80.30
2019-01-26T19:56:22.455Z,80.80
2019-01-26T19:58:54.947Z,80.50
2019-01-26T20:01:27.447Z,80.60
2019-01-26T20:03:59.958Z,81.10
2019-01-26T20:06:32.513Z,81.90
2019-01-26T20:09:09.409Z,81.00
2019-01-26T20:11:41.052Z,81.00
2019-01-26T20:14:13.544Z,80.50
2019-01-26T20:16:46.151Z,80.90
2019-01-26T20:19:18.683Z,80.70
2019-01-26T20:21:51.170Z,81.40
2019-01-26T20:24:23.668Z,81.20
2019-01-26T20:26:56.221Z,81.00
2019-01-26T20:29:28.658Z,81.30
2019-01-26T20:32:01.208Z,81.20
2019-01-26T20:34:33.703Z,80.90
2019-01-26T20:37:06.241Z,80.50
2019-01-26T20:39:38.723Z,79.40
2019-01-26T20:42:11.256Z,80.00
2019-01-26T20:44:43.757Z,79.70
2019-01-26T20:47:16.267Z,75.50
2019-01-26T20:49:48.777Z,80.10
2019-01-26T20:52:21.280Z,79.70
2019-01-26T20:54:53.724Z,79.80
2019-01-26T20:57:26.247Z,79.60
2019-01-26T20:59:58.783Z,79.60
2019-01-26T21:02:31.299Z,79.70
2019-01-26T21:05:04.365Z,80.10
2019-01-26T21:10:10.906Z,80.10
2019-01-26T21:12:43.455Z,79.70
2019-01-26T21:15:15.947Z,79.50
2019-01-26T21:17:48.422Z,74.00
2019-01-26T21:20:22.367Z,79.80
2019-01-26T21:22:54.828Z,79.60
2019-01-26T21:25:27.368Z,80.60
2019-01-26T21:27:59.968Z,79.70
2019-01-26T21:33:03.985Z,80.70
2019-01-26T21:35:36.470Z,79.50
2019-01-26T21:38:08.999Z,79.80
2019-01-26T21:40:41.490Z,79.60
2019-01-26T21:45:45.607Z,79.80
2019-01-26T21:48:18.068Z,79.60
2019-01-26T21:50:50.611Z,79.80
2019-01-26T21:53:24.375Z,79.70
2019-01-26T21:55:56.872Z,79.50
2019-01-26T22:01:00.931Z,79.90
2019-01-26T22:03:33.450Z,79.70
2019-01-26T22:06:05.906Z,79.60
2019-01-26T22:08:38.510Z,79.30
2019-01-26T22:11:11.639Z,79.50
2019-01-26T22:13:44.207Z,79.00
2019-01-26T22:16:16.704Z,79.50
2019-01-26T22:18:49.206Z,79.50
2019-01-26T22:21:21.695Z,80.10
2019-01-26T22:26:25.720Z,79.30
2019-01-26T22:28:58.241Z,79.60
2019-01-26T22:31:30.728Z,79.80
2019-01-26T22:34:03.253Z,79.80
2019-01-26T22:36:35.777Z,79.70
2019-01-26T22:39:09.811Z,80.00
2019-01-26T22:41:42.349Z,79.50
2019-01-26T22:44:14.887Z,79.40
2019-01-26T22:46:47.379Z,79.70
2019-01-26T22:49:19.883Z,68.30
2019-01-26T22:51:53.403Z,68.20
2019-01-26T22:54:26.154Z,68.10
2019-01-26T22:56:59.645Z,80.20
2019-01-26T22:59:32.161Z,80.20
2019-01-26T23:02:05.721Z,79.30
2019-01-26T23:04:43.235Z,79.40
2019-01-26T23:07:23.931Z,79.70
2019-01-26T23:12:37.166Z,78.90
2019-01-26T23:15:40.016Z,78.70
2019-01-26T23:18:33.645Z,79.00
2019-01-26T23:21:14.051Z,79.10
2019-01-26T23:24:03.470Z,78.30
2019-01-26T23:29:25.608Z,78.70
2019-01-26T23:31:58.116Z,78.40
2019-01-26T23:34:30.619Z,78.70
2019-01-26T23:37:03.483Z,65.90
2019-01-26T23:39:35.975Z,65.70
2019-01-26T23:42:08.479Z,65.60
2019-01-26T23:44:41.020Z,65.20
2019-01-26T23:47:14.533Z,64.90
2019-01-26T23:49:47.068Z,65.20
2019-01-26T23:52:20.843Z,65.10
2019-01-26T23:54:54.609Z,65.20
2019-01-26T23:57:27.099Z,64.90
2019-01-26T23:59:59.580Z,64.80
